sensor_id;sensor_type;location;lat;lon;timestamp;P1;durP1;ratioP1;P2;durP2;ratioP2
5026;SDS011;2532;52.480;13.354;2022-12-26T00:00:53;9.13;;;5.87;;
5026;SDS011;2532;52.480;13.354;2022-12-26T00:03:21;13.40;;;6.47;;
5026;SDS011;2532;52.480;13.354;2022-12-26T00:05:49;9.10;;;6.23;;
5026;SDS011;2532;52.480;13.354;2022-12-26T00:08:16;9.30;;;5.93;;
5026;SDS011;2532;52.480;13.354;2022-12-26T00:10:43;8.23;;;5.17;;
5026;SDS011;2532;52.480;13.354;2022-12-26T00:13:10;6.60;;;5.10;;
5026;SDS011;2532;52.480;13.354;2022-12-26T00:15:38;10.87;;;5.63;;
5026;SDS011;2532;52.480;13.354;2022-12-26T00:18:05;8.70;;;5.80;;
5026;SDS011;2532;52.480;13.354;2022-12-26T00:20:32;6.77;;;5.60;;
5026;SDS011;2532;52.480;13.354;2022-12-26T00:23:00;7.90;;;5.87;;
5026;SDS011;2532;52.480;13.354;2022-12-26T00:25:27;10.13;;;6.00;;
5026;SDS011;2532;52.480;13.354;2022-12-26T00:27:55;10.57;;;6.77;;
5026;SDS011;2532;52.480;13.354;2022-12-26T00:30:22;7.30;;;5.57;;
5026;SDS011;2532;52.480;13.354;2022-12-26T00:32:49;6.80;;;5.07;;
5026;SDS011;2532;52.480;13.354;2022-12-26T00:35:19;8.10;;;5.37;;
5026;SDS011;2532;52.480;13.354;2022-12-26T00:37:49;8.13;;;6.20;;
5026;SDS011;2532;52.480;13.354;2022-12-26T00:40:17;8.30;;;5.17;;
5026;SDS011;2532;52.480;13.354;2022-12-26T00:42:44;7.13;;;5.20;;
5026;SDS011;2532;52.480;13.354;2022-12-26T00:45:11;10.97;;;5.30;;
5026;SDS011;2532;52.480;13.354;2022-12-26T00:47:41;7.20;;;5.50;;
5026;SDS011;2532;52.480;13.354;2022-12-26T00:50:11;23.07;;;5.57;;
5026;SDS011;2532;52.480;13.354;2022-12-26T00:52:38;6.80;;;5.20;;
5026;SDS011;2532;52.480;13.354;2022-12-26T00:55:05;6.97;;;5.60;;
5026;SDS011;2532;52.480;13.354;2022-12-26T00:57:34;6.67;;;5.40;;
5026;SDS011;2532;52.480;13.354;2022-12-26T01:00:00;7.50;;;5.13;;
5026;SDS011;2532;52.480;13.354;2022-12-26T01:02:35;8.00;;;5.10;;
5026;SDS011;2532;52.480;13.354;2022-12-26T01:05:06;6.70;;;4.90;;
5026;SDS011;2532;52.480;13.354;2022-12-26T01:07:34;6.60;;;5.03;;
5026;SDS011;2532;52.480;13.354;2022-12-26T01:10:04;7.60;;;5.27;;
5026;SDS011;2532;52.480;13.354;2022-12-26T01:12:34;6.17;;;4.90;;
5026;SDS011;2532;52.480;13.354;2022-12-26T01:15:03;6.97;;;4.77;;
5026;SDS011;2532;52.480;13.354;2022-12-26T01:17:32;5.90;;;4.90;;
5026;SDS011;2532;52.480;13.354;2022-12-26T01:19:59;9.10;;;5.60;;
5026;SDS011;2532;52.480;13.354;2022-12-26T01:22:27;7.87;;;5.30;;
5026;SDS011;2532;52.480;13.354;2022-12-26T01:24:57;5.50;;;4.70;;
5026;SDS011;2532;52.480;13.354;2022-12-26T01:27:26;10.37;;;5.23;;
5026;SDS011;2532;52.480;13.354;2022-12-26T01:29:58;6.60;;;4.93;;
5026;SDS011;2532;52.480;13.354;2022-12-26T01:32:24;5.97;;;5.23;;
5026;SDS011;2532;52.480;13.354;2022-12-26T01:34:54;5.50;;;4.57;;
5026;SDS011;2532;52.480;13.354;2022-12-26T01:37:23;6.20;;;4.90;;
5026;SDS011;2532;52.480;13.354;2022-12-26T01:39:51;8.90;;;4.80;;
5026;SDS011;2532;52.480;13.354;2022-12-26T01:42:23;7.00;;;5.00;;
5026;SDS011;2532;52.480;13.354;2022-12-26T01:44:54;6.70;;;4.53;;
5026;SDS011;2532;52.480;13.354;2022-12-26T01:47:45;6.60;;;5.00;;
5026;SDS011;2532;52.480;13.354;2022-12-26T01:50:28;5.63;;;5.07;;
5026;SDS011;2532;52.480;13.354;2022-12-26T01:53:03;9.63;;;5.37;;
5026;SDS011;2532;52.480;13.354;2022-12-26T01:55:35;6.20;;;4.90;;
5026;SDS011;2532;52.480;13.354;2022-12-26T01:58:04;7.10;;;5.03;;
5026;SDS011;2532;52.480;13.354;2022-12-26T02:00:39;6.70;;;5.20;;
5026;SDS011;2532;52.480;13.354;2022-12-26T02:03:07;8.40;;;5.30;;
5026;SDS011;2532;52.480;13.354;2022-12-26T02:06:08;5.77;;;4.77;;
5026;SDS011;2532;52.480;13.354;2022-12-26T02:08:37;7.53;;;5.57;;
5026;SDS011;2532;52.480;13.354;2022-12-26T02:11:06;6.43;;;4.83;;
5026;SDS011;2532;52.480;13.354;2022-12-26T02:13:39;7.50;;;5.00;;
5026;SDS011;2532;52.480;13.354;2022-12-26T02:16:10;6.03;;;5.03;;
5026;SDS011;2532;52.480;13.354;2022-12-26T02:18:39;6.57;;;4.90;;
5026;SDS011;2532;52.480;13.354;2022-12-26T02:21:22;6.33;;;5.00;;
5026;SDS011;2532;52.480;13.354;2022-12-26T02:27:08;7.03;;;4.60;;
5026;SDS011;2532;52.480;13.354;2022-12-26T02:29:57;7.97;;;4.93;;
5026;SDS011;2532;52.480;13.354;2022-12-26T02:32:51;6.17;;;4.70;;
5026;SDS011;2532;52.480;13.354;2022-12-26T02:35:50;6.67;;;5.13;;
5026;SDS011;2532;52.480;13.354;2022-12-26T02:38:28;8.60;;;4.97;;
5026;SDS011;2532;52.480;13.354;2022-12-26T02:41:02;5.17;;;4.50;;
5026;SDS011;2532;52.480;13.354;2022-12-26T02:43:40;7.43;;;4.80;;
5026;SDS011;2532;52.480;13.354;2022-12-26T02:46:16;7.20;;;4.93;;
5026;SDS011;2532;52.480;13.354;2022-12-26T02:49:10;6.27;;;5.07;;
5026;SDS011;2532;52.480;13.354;2022-12-26T02:51:46;6.67;;;5.13;;
5026;SDS011;2532;52.480;13.354;2022-12-26T02:54:40;5.17;;;4.50;;
5026;SDS011;2532;52.480;13.354;2022-12-26T02:57:31;8.73;;;5.37;;
5026;SDS011;2532;52.480;13.354;2022-12-26T03:00:20;7.13;;;4.80;;
5026;SDS011;2532;52.480;13.354;2022-12-26T03:03:06;6.90;;;5.40;;
5026;SDS011;2532;52.480;13.354;2022-12-26T03:05:57;5.20;;;4.40;;
5026;SDS011;2532;52.480;13.354;2022-12-26T03:08:47;8.10;;;4.70;;
5026;SDS011;2532;52.480;13.354;2022-12-26T03:11:36;5.23;;;4.73;;
5026;SDS011;2532;52.480;13.354;2022-12-26T03:14:23;6.30;;;4.87;;
5026;SDS011;2532;52.480;13.354;2022-12-26T03:16:54;6.67;;;4.50;;
5026;SDS011;2532;52.480;13.354;2022-12-26T03:19:42;5.53;;;4.63;;
5026;SDS011;2532;52.480;13.354;2022-12-26T03:22:26;5.03;;;4.50;;
5026;SDS011;2532;52.480;13.354;2022-12-26T03:25:02;7.07;;;4.60;;
5026;SDS011;2532;52.480;13.354;2022-12-26T03:27:50;8.03;;;5.50;;
5026;SDS011;2532;52.480;13.354;2022-12-26T03:30:18;8.33;;;4.70;;
5026;SDS011;2532;52.480;13.354;2022-12-26T03:33:02;9.87;;;5.90;;
5026;SDS011;2532;52.480;13.354;2022-12-26T03:35:31;8.13;;;5.50;;
5026;SDS011;2532;52.480;13.354;2022-12-26T03:38:00;7.27;;;4.87;;
5026;SDS011;2532;52.480;13.354;2022-12-26T03:40:36;6.03;;;4.93;;
5026;SDS011;2532;52.480;13.354;2022-12-26T03:43:35;5.50;;;4.77;;
5026;SDS011;2532;52.480;13.354;2022-12-26T03:46:38;7.00;;;5.07;;
5026;SDS011;2532;52.480;13.354;2022-12-26T03:49:37;7.33;;;5.10;;
5026;SDS011;2532;52.480;13.354;2022-12-26T03:52:27;6.50;;;4.80;;
5026;SDS011;2532;52.480;13.354;2022-12-26T03:55:23;6.00;;;4.90;;
5026;SDS011;2532;52.480;13.354;2022-12-26T03:58:15;8.03;;;5.40;;
5026;SDS011;2532;52.480;13.354;2022-12-26T04:01:06;8.50;;;5.27;;
5026;SDS011;2532;52.480;13.354;2022-12-26T04:03:55;6.17;;;5.10;;
5026;SDS011;2532;52.480;13.354;2022-12-26T04:06:44;5.50;;;4.67;;
5026;SDS011;2532;52.480;13.354;2022-12-26T04:09:33;5.10;;;4.30;;
5026;SDS011;2532;52.480;13.354;2022-12-26T04:12:26;5.17;;;4.47;;
5026;SDS011;2532;52.480;13.354;2022-12-26T04:15:16;5.07;;;4.60;;
5026;SDS011;2532;52.480;13.354;2022-12-26T04:18:06;6.90;;;4.53;;
5026;SDS011;2532;52.480;13.354;2022-12-26T04:20:59;8.77;;;4.97;;
5026;SDS011;2532;52.480;13.354;2022-12-26T04:23:58;4.80;;;4.40;;
5026;SDS011;2532;52.480;13.354;2022-12-26T04:26:46;8.10;;;4.60;;
5026;SDS011;2532;52.480;13.354;2022-12-26T04:29:38;6.50;;;4.60;;
5026;SDS011;2532;52.480;13.354;2022-12-26T04:32:26;6.83;;;5.00;;
5026;SDS011;2532;52.480;13.354;2022-12-26T04:35:19;6.50;;;4.60;;
5026;SDS011;2532;52.480;13.354;2022-12-26T04:38:07;5.93;;;4.30;;
5026;SDS011;2532;52.480;13.354;2022-12-26T04:40:56;8.20;;;4.60;;
5026;SDS011;2532;52.480;13.354;2022-12-26T04:43:44;5.37;;;4.87;;
5026;SDS011;2532;52.480;13.354;2022-12-26T04:46:30;9.40;;;4.80;;
5026;SDS011;2532;52.480;13.354;2022-12-26T04:48:59;5.93;;;5.10;;
5026;SDS011;2532;52.480;13.354;2022-12-26T04:51:47;5.03;;;4.53;;
5026;SDS011;2532;52.480;13.354;2022-12-26T04:54:14;7.60;;;4.67;;
5026;SDS011;2532;52.480;13.354;2022-12-26T04:56:41;5.13;;;4.20;;
5026;SDS011;2532;52.480;13.354;2022-12-26T04:59:08;4.60;;;4.20;;
5026;SDS011;2532;52.480;13.354;2022-12-26T05:01:39;5.80;;;4.97;;
5026;SDS011;2532;52.480;13.354;2022-12-26T05:04:24;6.83;;;5.60;;
5026;SDS011;2532;52.480;13.354;2022-12-26T05:07:10;5.93;;;4.93;;
5026;SDS011;2532;52.480;13.354;2022-12-26T05:09:59;5.60;;;4.90;;
5026;SDS011;2532;52.480;13.354;2022-12-26T05:12:26;5.10;;;4.40;;
5026;SDS011;2532;52.480;13.354;2022-12-26T05:14:53;5.80;;;4.33;;
5026;SDS011;2532;52.480;13.354;2022-12-26T05:17:21;8.90;;;5.33;;
5026;SDS011;2532;52.480;13.354;2022-12-26T05:20:06;10.30;;;5.40;;
5026;SDS011;2532;52.480;13.354;2022-12-26T05:22:53;6.80;;;4.70;;
5026;SDS011;2532;52.480;13.354;2022-12-26T05:25:39;7.07;;;5.90;;
5026;SDS011;2532;52.480;13.354;2022-12-26T05:28:25;5.70;;;5.10;;
5026;SDS011;2532;52.480;13.354;2022-12-26T05:31:07;7.40;;;5.50;;
5026;SDS011;2532;52.480;13.354;2022-12-26T05:33:36;6.70;;;5.60;;
5026;SDS011;2532;52.480;13.354;2022-12-26T05:36:20;5.83;;;5.10;;
5026;SDS011;2532;52.480;13.354;2022-12-26T05:38:50;6.90;;;4.70;;
5026;SDS011;2532;52.480;13.354;2022-12-26T05:41:17;5.40;;;4.90;;
5026;SDS011;2532;52.480;13.354;2022-12-26T05:43:44;6.10;;;5.07;;
5026;SDS011;2532;52.480;13.354;2022-12-26T05:46:11;6.60;;;5.00;;
5026;SDS011;2532;52.480;13.354;2022-12-26T05:48:39;5.67;;;4.70;;
5026;SDS011;2532;52.480;13.354;2022-12-26T05:51:06;6.70;;;5.37;;
5026;SDS011;2532;52.480;13.354;2022-12-26T05:53:33;5.47;;;4.60;;
5026;SDS011;2532;52.480;13.354;2022-12-26T05:56:01;5.53;;;5.00;;
5026;SDS011;2532;52.480;13.354;2022-12-26T05:58:29;7.33;;;4.80;;
5026;SDS011;2532;52.480;13.354;2022-12-26T06:01:02;4.83;;;4.17;;
5026;SDS011;2532;52.480;13.354;2022-12-26T06:03:30;8.90;;;4.20;;
5026;SDS011;2532;52.480;13.354;2022-12-26T06:05:59;5.50;;;4.97;;
5026;SDS011;2532;52.480;13.354;2022-12-26T06:08:26;7.93;;;4.73;;
5026;SDS011;2532;52.480;13.354;2022-12-26T06:10:54;6.43;;;4.70;;
5026;SDS011;2532;52.480;13.354;2022-12-26T06:13:21;6.90;;;4.63;;
5026;SDS011;2532;52.480;13.354;2022-12-26T06:15:51;5.80;;;4.43;;
5026;SDS011;2532;52.480;13.354;2022-12-26T06:18:18;4.87;;;4.37;;
5026;SDS011;2532;52.480;13.354;2022-12-26T06:20:45;4.40;;;4.00;;
5026;SDS011;2532;52.480;13.354;2022-12-26T06:23:13;5.90;;;4.63;;
5026;SDS011;2532;52.480;13.354;2022-12-26T06:25:40;6.40;;;4.70;;
5026;SDS011;2532;52.480;13.354;2022-12-26T06:28:07;5.63;;;5.03;;
5026;SDS011;2532;52.480;13.354;2022-12-26T06:30:34;7.23;;;5.23;;
5026;SDS011;2532;52.480;13.354;2022-12-26T06:33:00;5.87;;;5.00;;
5026;SDS011;2532;52.480;13.354;2022-12-26T06:35:27;5.97;;;5.30;;
5026;SDS011;2532;52.480;13.354;2022-12-26T06:37:54;6.30;;;4.80;;
5026;SDS011;2532;52.480;13.354;2022-12-26T06:40:23;5.90;;;5.13;;
5026;SDS011;2532;52.480;13.354;2022-12-26T06:42:50;6.60;;;4.50;;
5026;SDS011;2532;52.480;13.354;2022-12-26T06:45:16;6.67;;;4.30;;
5026;SDS011;2532;52.480;13.354;2022-12-26T06:47:43;6.00;;;4.63;;
5026;SDS011;2532;52.480;13.354;2022-12-26T06:50:11;10.40;;;5.47;;
5026;SDS011;2532;52.480;13.354;2022-12-26T06:52:38;5.20;;;4.70;;
5026;SDS011;2532;52.480;13.354;2022-12-26T06:55:05;5.47;;;4.33;;
5026;SDS011;2532;52.480;13.354;2022-12-26T06:57:34;5.13;;;4.20;;
5026;SDS011;2532;52.480;13.354;2022-12-26T07:00:01;11.13;;;4.70;;
5026;SDS011;2532;52.480;13.354;2022-12-26T07:02:28;6.73;;;5.37;;
5026;SDS011;2532;52.480;13.354;2022-12-26T07:04:55;5.57;;;4.97;;
5026;SDS011;2532;52.480;13.354;2022-12-26T07:07:22;5.10;;;4.60;;
5026;SDS011;2532;52.480;13.354;2022-12-26T07:09:49;5.93;;;5.27;;
5026;SDS011;2532;52.480;13.354;2022-12-26T07:12:16;4.87;;;3.97;;
5026;SDS011;2532;52.480;13.354;2022-12-26T07:14:46;6.93;;;4.90;;
5026;SDS011;2532;52.480;13.354;2022-12-26T07:17:13;5.53;;;4.87;;
5026;SDS011;2532;52.480;13.354;2022-12-26T07:19:40;6.73;;;5.80;;
5026;SDS011;2532;52.480;13.354;2022-12-26T07:22:07;9.03;;;5.20;;
5026;SDS011;2532;52.480;13.354;2022-12-26T07:24:34;5.47;;;4.90;;
5026;SDS011;2532;52.480;13.354;2022-12-26T07:27:01;5.90;;;5.03;;
5026;SDS011;2532;52.480;13.354;2022-12-26T07:29:28;9.30;;;5.03;;
5026;SDS011;2532;52.480;13.354;2022-12-26T07:31:56;6.03;;;5.07;;
5026;SDS011;2532;52.480;13.354;2022-12-26T07:34:23;5.47;;;4.23;;
5026;SDS011;2532;52.480;13.354;2022-12-26T07:36:50;6.83;;;4.30;;
5026;SDS011;2532;52.480;13.354;2022-12-26T07:39:17;5.53;;;4.13;;
5026;SDS011;2532;52.480;13.354;2022-12-26T07:41:44;5.73;;;5.13;;
5026;SDS011;2532;52.480;13.354;2022-12-26T07:44:23;7.63;;;5.47;;
5026;SDS011;2532;52.480;13.354;2022-12-26T07:46:50;5.10;;;4.60;;
5026;SDS011;2532;52.480;13.354;2022-12-26T07:49:18;8.10;;;5.93;;
5026;SDS011;2532;52.480;13.354;2022-12-26T07:51:45;6.10;;;5.33;;
5026;SDS011;2532;52.480;13.354;2022-12-26T07:54:13;6.33;;;4.73;;
5026;SDS011;2532;52.480;13.354;2022-12-26T07:56:40;4.83;;;3.80;;
5026;SDS011;2532;52.480;13.354;2022-12-26T07:59:09;6.80;;;4.83;;
5026;SDS011;2532;52.480;13.354;2022-12-26T08:01:39;8.47;;;5.97;;
5026;SDS011;2532;52.480;13.354;2022-12-26T08:04:06;5.87;;;5.33;;
5026;SDS011;2532;52.480;13.354;2022-12-26T08:06:34;7.07;;;4.80;;
5026;SDS011;2532;52.480;13.354;2022-12-26T08:09:02;6.47;;;5.77;;
5026;SDS011;2532;52.480;13.354;2022-12-26T08:11:30;5.77;;;5.10;;
5026;SDS011;2532;52.480;13.354;2022-12-26T08:13:59;5.17;;;4.60;;
5026;SDS011;2532;52.480;13.354;2022-12-26T08:16:27;5.73;;;4.60;;
5026;SDS011;2532;52.480;13.354;2022-12-26T08:18:54;5.33;;;4.30;;
5026;SDS011;2532;52.480;13.354;2022-12-26T08:21:21;6.97;;;4.83;;
5026;SDS011;2532;52.480;13.354;2022-12-26T08:23:50;6.50;;;5.43;;
5026;SDS011;2532;52.480;13.354;2022-12-26T08:26:17;4.90;;;4.40;;
5026;SDS011;2532;52.480;13.354;2022-12-26T08:28:47;5.20;;;4.30;;
5026;SDS011;2532;52.480;13.354;2022-12-26T08:31:16;5.33;;;4.40;;
5026;SDS011;2532;52.480;13.354;2022-12-26T08:33:44;6.90;;;4.57;;
5026;SDS011;2532;52.480;13.354;2022-12-26T08:36:11;9.80;;;4.97;;
5026;SDS011;2532;52.480;13.354;2022-12-26T08:38:41;6.80;;;4.80;;
5026;SDS011;2532;52.480;13.354;2022-12-26T08:41:09;5.53;;;4.73;;
5026;SDS011;2532;52.480;13.354;2022-12-26T08:43:36;5.97;;;4.07;;
5026;SDS011;2532;52.480;13.354;2022-12-26T08:46:04;6.43;;;4.77;;
5026;SDS011;2532;52.480;13.354;2022-12-26T08:48:35;7.00;;;6.20;;
5026;SDS011;2532;52.480;13.354;2022-12-26T08:51:04;7.93;;;4.80;;
5026;SDS011;2532;52.480;13.354;2022-12-26T08:53:32;6.40;;;4.57;;
5026;SDS011;2532;52.480;13.354;2022-12-26T08:56:01;6.73;;;4.63;;
5026;SDS011;2532;52.480;13.354;2022-12-26T08:58:30;6.50;;;4.87;;
5026;SDS011;2532;52.480;13.354;2022-12-26T09:01:04;5.23;;;4.63;;
5026;SDS011;2532;52.480;13.354;2022-12-26T09:03:32;8.57;;;5.40;;
5026;SDS011;2532;52.480;13.354;2022-12-26T09:05:59;6.47;;;4.53;;
5026;SDS011;2532;52.480;13.354;2022-12-26T09:08:27;5.60;;;4.47;;
5026;SDS011;2532;52.480;13.354;2022-12-26T09:10:55;5.53;;;4.83;;
5026;SDS011;2532;52.480;13.354;2022-12-26T09:13:22;6.83;;;5.40;;
5026;SDS011;2532;52.480;13.354;2022-12-26T09:15:50;10.10;;;4.67;;
5026;SDS011;2532;52.480;13.354;2022-12-26T09:18:17;6.27;;;5.23;;
5026;SDS011;2532;52.480;13.354;2022-12-26T09:20:44;7.90;;;4.97;;
5026;SDS011;2532;52.480;13.354;2022-12-26T09:23:11;6.60;;;5.43;;
5026;SDS011;2532;52.480;13.354;2022-12-26T09:25:39;8.17;;;5.60;;
5026;SDS011;2532;52.480;13.354;2022-12-26T09:28:06;7.80;;;5.97;;
5026;SDS011;2532;52.480;13.354;2022-12-26T09:30:33;8.00;;;6.10;;
5026;SDS011;2532;52.480;13.354;2022-12-26T09:33:03;7.20;;;5.73;;
5026;SDS011;2532;52.480;13.354;2022-12-26T09:35:31;7.07;;;6.23;;
5026;SDS011;2532;52.480;13.354;2022-12-26T09:37:58;7.70;;;5.60;;
5026;SDS011;2532;52.480;13.354;2022-12-26T09:40:27;6.73;;;5.40;;
5026;SDS011;2532;52.480;13.354;2022-12-26T09:43:05;7.03;;;5.87;;
5026;SDS011;2532;52.480;13.354;2022-12-26T09:45:43;7.47;;;4.80;;
5026;SDS011;2532;52.480;13.354;2022-12-26T09:48:19;8.53;;;5.80;;
5026;SDS011;2532;52.480;13.354;2022-12-26T09:50:51;5.60;;;5.00;;
5026;SDS011;2532;52.480;13.354;2022-12-26T09:53:21;11.90;;;5.43;;
5026;SDS011;2532;52.480;13.354;2022-12-26T09:55:55;6.10;;;5.10;;
5026;SDS011;2532;52.480;13.354;2022-12-26T09:58:25;6.00;;;4.83;;
5026;SDS011;2532;52.480;13.354;2022-12-26T10:00:55;7.83;;;5.67;;
5026;SDS011;2532;52.480;13.354;2022-12-26T10:03:27;6.20;;;4.90;;
5026;SDS011;2532;52.480;13.354;2022-12-26T10:06:06;7.10;;;5.40;;
5026;SDS011;2532;52.480;13.354;2022-12-26T10:08:41;5.87;;;4.93;;
5026;SDS011;2532;52.480;13.354;2022-12-26T10:11:23;5.43;;;4.40;;
5026;SDS011;2532;52.480;13.354;2022-12-26T10:14:02;6.00;;;4.60;;
5026;SDS011;2532;52.480;13.354;2022-12-26T10:16:37;5.93;;;5.20;;
5026;SDS011;2532;52.480;13.354;2022-12-26T10:19:29;6.50;;;5.30;;
5026;SDS011;2532;52.480;13.354;2022-12-26T10:22:05;6.10;;;4.73;;
5026;SDS011;2532;52.480;13.354;2022-12-26T10:24:42;7.30;;;5.70;;
5026;SDS011;2532;52.480;13.354;2022-12-26T10:27:11;7.77;;;5.20;;
5026;SDS011;2532;52.480;13.354;2022-12-26T10:29:41;9.60;;;5.50;;
5026;SDS011;2532;52.480;13.354;2022-12-26T10:32:17;6.87;;;5.27;;
5026;SDS011;2532;52.480;13.354;2022-12-26T10:34:49;6.10;;;4.70;;
5026;SDS011;2532;52.480;13.354;2022-12-26T10:37:21;6.10;;;5.20;;
5026;SDS011;2532;52.480;13.354;2022-12-26T10:39:53;4.97;;;4.17;;
5026;SDS011;2532;52.480;13.354;2022-12-26T10:42:25;6.30;;;5.10;;
5026;SDS011;2532;52.480;13.354;2022-12-26T10:44:56;6.73;;;4.87;;
5026;SDS011;2532;52.480;13.354;2022-12-26T10:47:26;5.97;;;4.43;;
5026;SDS011;2532;52.480;13.354;2022-12-26T10:49:56;5.77;;;4.57;;
5026;SDS011;2532;52.480;13.354;2022-12-26T10:52:25;5.47;;;4.47;;
5026;SDS011;2532;52.480;13.354;2022-12-26T10:54:57;4.63;;;4.23;;
5026;SDS011;2532;52.480;13.354;2022-12-26T10:57:26;7.73;;;4.10;;
5026;SDS011;2532;52.480;13.354;2022-12-26T10:59:54;5.53;;;4.20;;
5026;SDS011;2532;52.480;13.354;2022-12-26T11:02:23;4.97;;;3.63;;
5026;SDS011;2532;52.480;13.354;2022-12-26T11:05:00;3.17;;;2.90;;
5026;SDS011;2532;52.480;13.354;2022-12-26T11:07:32;3.80;;;3.40;;
5026;SDS011;2532;52.480;13.354;2022-12-26T11:10:01;4.60;;;3.40;;
5026;SDS011;2532;52.480;13.354;2022-12-26T11:12:35;3.47;;;3.17;;
5026;SDS011;2532;52.480;13.354;2022-12-26T11:15:06;3.23;;;2.93;;
5026;SDS011;2532;52.480;13.354;2022-12-26T11:17:44;3.27;;;2.80;;
5026;SDS011;2532;52.480;13.354;2022-12-26T11:20:25;3.67;;;3.37;;
5026;SDS011;2532;52.480;13.354;2022-12-26T11:22:54;3.77;;;3.37;;
5026;SDS011;2532;52.480;13.354;2022-12-26T11:25:46;4.13;;;3.10;;
5026;SDS011;2532;52.480;13.354;2022-12-26T11:28:18;3.70;;;3.30;;
5026;SDS011;2532;52.480;13.354;2022-12-26T11:30:50;4.07;;;3.67;;
5026;SDS011;2532;52.480;13.354;2022-12-26T11:33:25;3.77;;;3.33;;
5026;SDS011;2532;52.480;13.354;2022-12-26T11:36:02;4.07;;;3.67;;
5026;SDS011;2532;52.480;13.354;2022-12-26T11:38:39;4.30;;;3.73;;
5026;SDS011;2532;52.480;13.354;2022-12-26T11:41:17;3.43;;;3.13;;
5026;SDS011;2532;52.480;13.354;2022-12-26T11:43:58;5.17;;;4.47;;
5026;SDS011;2532;52.480;13.354;2022-12-26T11:46:32;3.47;;;3.17;;
5026;SDS011;2532;52.480;13.354;2022-12-26T11:49:01;4.30;;;3.70;;
5026;SDS011;2532;52.480;13.354;2022-12-26T11:51:35;3.80;;;3.23;;
5026;SDS011;2532;52.480;13.354;2022-12-26T11:54:16;6.50;;;4.30;;
5026;SDS011;2532;52.480;13.354;2022-12-26T11:56:58;4.90;;;4.20;;
5026;SDS011;2532;52.480;13.354;2022-12-26T11:59:34;7.80;;;3.30;;
5026;SDS011;2532;52.480;13.354;2022-12-26T12:02:15;3.90;;;3.60;;
5026;SDS011;2532;52.480;13.354;2022-12-26T12:04:44;4.00;;;3.47;;
5026;SDS011;2532;52.480;13.354;2022-12-26T12:07:17;5.10;;;4.20;;
5026;SDS011;2532;52.480;13.354;2022-12-26T12:09:55;6.80;;;4.53;;
5026;SDS011;2532;52.480;13.354;2022-12-26T12:12:27;4.90;;;3.70;;
5026;SDS011;2532;52.480;13.354;2022-12-26T12:15:01;4.10;;;3.53;;
5026;SDS011;2532;52.480;13.354;2022-12-26T12:17:37;4.80;;;4.27;;
5026;SDS011;2532;52.480;13.354;2022-12-26T12:20:16;5.10;;;3.90;;
5026;SDS011;2532;52.480;13.354;2022-12-26T12:22:59;5.40;;;4.53;;
5026;SDS011;2532;52.480;13.354;2022-12-26T12:25:53;9.40;;;6.00;;
5026;SDS011;2532;52.480;13.354;2022-12-26T12:31:27;5.40;;;4.50;;
5026;SDS011;2532;52.480;13.354;2022-12-26T12:34:06;4.83;;;4.10;;
5026;SDS011;2532;52.480;13.354;2022-12-26T12:36:47;6.13;;;5.20;;
5026;SDS011;2532;52.480;13.354;2022-12-26T12:39:29;4.87;;;4.33;;
5026;SDS011;2532;52.480;13.354;2022-12-26T12:44:56;6.77;;;4.90;;
5026;SDS011;2532;52.480;13.354;2022-12-26T12:47:37;8.00;;;5.27;;
5026;SDS011;2532;52.480;13.354;2022-12-26T12:50:13;5.37;;;4.87;;
5026;SDS011;2532;52.480;13.354;2022-12-26T12:52:49;6.10;;;5.10;;
5026;SDS011;2532;52.480;13.354;2022-12-26T12:55:27;5.03;;;4.20;;
5026;SDS011;2532;52.480;13.354;2022-12-26T12:58:06;5.10;;;4.10;;
5026;SDS011;2532;52.480;13.354;2022-12-26T13:00:41;7.10;;;4.50;;
5026;SDS011;2532;52.480;13.354;2022-12-26T13:03:11;4.73;;;4.23;;
5026;SDS011;2532;52.480;13.354;2022-12-26T13:05:47;7.87;;;5.73;;
5026;SDS011;2532;52.480;13.354;2022-12-26T13:08:20;6.10;;;4.80;;
5026;SDS011;2532;52.480;13.354;2022-12-26T13:10:51;5.80;;;4.50;;
5026;SDS011;2532;52.480;13.354;2022-12-26T13:13:24;5.80;;;3.93;;
5026;SDS011;2532;52.480;13.354;2022-12-26T13:15:56;4.97;;;4.17;;
5026;SDS011;2532;52.480;13.354;2022-12-26T13:18:27;4.47;;;4.07;;
5026;SDS011;2532;52.480;13.354;2022-12-26T13:21:00;5.40;;;4.60;;
5026;SDS011;2532;52.480;13.354;2022-12-26T13:23:31;5.60;;;4.30;;
5026;SDS011;2532;52.480;13.354;2022-12-26T13:26:23;5.30;;;3.97;;
5026;SDS011;2532;52.480;13.354;2022-12-26T13:28:56;7.33;;;4.63;;
5026;SDS011;2532;52.480;13.354;2022-12-26T13:31:30;5.83;;;4.47;;
5026;SDS011;2532;52.480;13.354;2022-12-26T13:33:58;6.07;;;4.40;;
5026;SDS011;2532;52.480;13.354;2022-12-26T13:36:33;5.07;;;4.57;;
5026;SDS011;2532;52.480;13.354;2022-12-26T13:42:16;5.70;;;4.47;;
5026;SDS011;2532;52.480;13.354;2022-12-26T13:54:16;4.80;;;4.40;;
5026;SDS011;2532;52.480;13.354;2022-12-26T13:56:52;7.47;;;4.23;;
5026;SDS011;2532;52.480;13.354;2022-12-26T13:59:33;5.73;;;4.40;;
5026;SDS011;2532;52.480;13.354;2022-12-26T14:02:12;5.30;;;4.07;;
5026;SDS011;2532;52.480;13.354;2022-12-26T14:04:50;5.70;;;4.20;;
5026;SDS011;2532;52.480;13.354;2022-12-26T14:07:23;6.20;;;4.07;;
5026;SDS011;2532;52.480;13.354;2022-12-26T14:10:00;5.17;;;4.33;;
5026;SDS011;2532;52.480;13.354;2022-12-26T14:12:35;5.17;;;4.30;;
5026;SDS011;2532;52.480;13.354;2022-12-26T14:15:27;4.67;;;4.27;;
5026;SDS011;2532;52.480;13.354;2022-12-26T14:18:07;6.43;;;4.60;;
5026;SDS011;2532;52.480;13.354;2022-12-26T14:20:46;5.53;;;4.13;;
5026;SDS011;2532;52.480;13.354;2022-12-26T14:26:11;7.00;;;5.60;;
5026;SDS011;2532;52.480;13.354;2022-12-26T14:28:49;6.07;;;4.87;;
5026;SDS011;2532;52.480;13.354;2022-12-26T14:31:26;9.60;;;5.33;;
5026;SDS011;2532;52.480;13.354;2022-12-26T14:34:03;5.67;;;4.63;;
5026;SDS011;2532;52.480;13.354;2022-12-26T14:36:40;5.83;;;4.60;;
5026;SDS011;2532;52.480;13.354;2022-12-26T14:39:16;8.23;;;4.67;;
5026;SDS011;2532;52.480;13.354;2022-12-26T14:45:02;8.63;;;5.00;;
5026;SDS011;2532;52.480;13.354;2022-12-26T14:47:38;5.30;;;4.53;;
5026;SDS011;2532;52.480;13.354;2022-12-26T14:53:20;8.10;;;5.43;;
5026;SDS011;2532;52.480;13.354;2022-12-26T14:55:58;5.13;;;4.63;;
5026;SDS011;2532;52.480;13.354;2022-12-26T14:58:36;6.17;;;4.73;;
5026;SDS011;2532;52.480;13.354;2022-12-26T15:04:28;5.70;;;4.50;;
5026;SDS011;2532;52.480;13.354;2022-12-26T15:16:37;5.10;;;4.60;;
5026;SDS011;2532;52.480;13.354;2022-12-26T15:19:29;5.57;;;4.17;;
5026;SDS011;2532;52.480;13.354;2022-12-26T15:22:38;10.07;;;5.07;;
5026;SDS011;2532;52.480;13.354;2022-12-26T15:25:33;5.73;;;5.17;;
5026;SDS011;2532;52.480;13.354;2022-12-26T15:28:33;6.13;;;5.37;;
5026;SDS011;2532;52.480;13.354;2022-12-26T15:34:18;6.17;;;5.20;;
5026;SDS011;2532;52.480;13.354;2022-12-26T15:37:16;5.40;;;4.90;;
5026;SDS011;2532;52.480;13.354;2022-12-26T15:39:52;9.10;;;4.90;;
5026;SDS011;2532;52.480;13.354;2022-12-26T15:42:31;8.87;;;5.23;;
5026;SDS011;2532;52.480;13.354;2022-12-26T15:45:20;8.40;;;5.70;;
5026;SDS011;2532;52.480;13.354;2022-12-26T15:48:05;6.10;;;4.90;;
5026;SDS011;2532;52.480;13.354;2022-12-26T15:50:47;9.63;;;5.60;;
5026;SDS011;2532;52.480;13.354;2022-12-26T15:53:23;9.27;;;5.80;;
5026;SDS011;2532;52.480;13.354;2022-12-26T15:56:01;7.73;;;5.30;;
5026;SDS011;2532;52.480;13.354;2022-12-26T15:58:42;11.03;;;5.87;;
5026;SDS011;2532;52.480;13.354;2022-12-26T16:01:34;7.43;;;5.03;;
5026;SDS011;2532;52.480;13.354;2022-12-26T16:04:06;6.60;;;4.70;;
5026;SDS011;2532;52.480;13.354;2022-12-26T16:06:48;5.27;;;4.40;;
5026;SDS011;2532;52.480;13.354;2022-12-26T16:09:33;7.73;;;4.87;;
5026;SDS011;2532;52.480;13.354;2022-12-26T16:12:16;7.70;;;5.40;;
5026;SDS011;2532;52.480;13.354;2022-12-26T16:15:01;5.80;;;4.50;;
5026;SDS011;2532;52.480;13.354;2022-12-26T16:17:39;6.50;;;4.47;;
5026;SDS011;2532;52.480;13.354;2022-12-26T16:20:18;5.53;;;4.77;;
5026;SDS011;2532;52.480;13.354;2022-12-26T16:23:05;6.50;;;5.80;;
5026;SDS011;2532;52.480;13.354;2022-12-26T16:25:38;9.27;;;7.63;;
5026;SDS011;2532;52.480;13.354;2022-12-26T16:28:05;10.47;;;9.40;;
5026;SDS011;2532;52.480;13.354;2022-12-26T16:30:35;8.67;;;6.10;;
5026;SDS011;2532;52.480;13.354;2022-12-26T16:33:02;10.83;;;8.70;;